createdAt,value
2018-10-12T00:01:08.772Z,23.10
2018-10-12T00:03:37.036Z,23.10
2018-10-12T00:06:05.362Z,23.10
2018-10-12T00:08:33.572Z,23.10
2018-10-12T00:11:01.755Z,23.10
2018-10-12T00:13:29.909Z,23.10
2018-10-12T00:15:58.087Z,23.10
2018-10-12T00:18:26.253Z,23.00
2018-10-12T00:20:54.534Z,23.00
2018-10-12T00:23:22.715Z,23.00
2018-10-12T00:25:50.869Z,22.90
2018-10-12T00:28:19.203Z,22.90
2018-10-12T00:30:47.379Z,22.90
2018-10-12T00:33:15.576Z,22.90
2018-10-12T00:35:43.701Z,22.90
2018-10-12T00:38:11.941Z,22.90
2018-10-12T00:40:40.141Z,22.80
2018-10-12T00:43:08.304Z,22.70
2018-10-12T00:45:36.488Z,22.80
2018-10-12T00:48:04.724Z,22.80
2018-10-12T00:50:33.040Z,22.80
2018-10-12T00:53:01.549Z,22.70
2018-10-12T00:55:31.532Z,22.80
2018-10-12T00:57:59.700Z,22.70
2018-10-12T01:00:27.970Z,22.70
2018-10-12T01:02:56.715Z,22.70
2018-10-12T01:05:24.865Z,22.70
2018-10-12T01:07:53.026Z,22.60
2018-10-12T01:10:21.278Z,22.60
2018-10-12T01:12:49.544Z,22.60
2018-10-12T01:15:17.708Z,22.60
2018-10-12T01:17:46.084Z,22.60
2018-10-12T01:20:14.231Z,22.60
2018-10-12T01:22:42.423Z,22.50
2018-10-12T01:25:10.619Z,22.50
2018-10-12T01:27:38.860Z,22.50
2018-10-12T01:30:07.151Z,22.50
2018-10-12T01:32:40.720Z,22.50
2018-10-12T01:35:08.986Z,22.40
2018-10-12T01:37:37.220Z,22.50
2018-10-12T01:40:05.426Z,22.50
2018-10-12T01:42:33.624Z,22.50
2018-10-12T01:45:01.741Z,22.40
2018-10-12T01:47:29.985Z,22.40
2018-10-12T01:49:58.131Z,22.50
2018-10-12T01:52:26.241Z,22.40
2018-10-12T01:54:54.475Z,22.30
2018-10-12T01:57:22.599Z,22.30
2018-10-12T01:59:50.764Z,22.30
2018-10-12T02:02:18.929Z,22.20
2018-10-12T02:04:47.097Z,22.20
2018-10-12T02:07:15.322Z,22.20
2018-10-12T02:09:43.561Z,22.30
2018-10-12T02:12:11.711Z,22.30
2018-10-12T02:14:40.025Z,22.30
2018-10-12T02:17:08.197Z,22.20
2018-10-12T02:19:36.396Z,22.20
2018-10-12T02:22:04.566Z,22.30
2018-10-12T02:24:32.785Z,22.20
2018-10-12T02:27:01.064Z,22.20
2018-10-12T02:29:29.205Z,22.20
2018-10-12T02:31:57.376Z,22.20
2018-10-12T02:34:25.558Z,22.30
2018-10-12T02:36:53.957Z,22.10
2018-10-12T02:39:22.296Z,22.10
2018-10-12T02:41:50.455Z,22.10
2018-10-12T02:44:18.828Z,22.10
2018-10-12T02:46:47.050Z,22.00
2018-10-12T02:49:15.252Z,22.10
2018-10-12T02:51:43.721Z,22.00
2018-10-12T02:54:11.896Z,22.00
2018-10-12T02:56:40.275Z,22.00
2018-10-12T02:59:08.409Z,21.90
2018-10-12T03:01:36.783Z,22.00
2018-10-12T03:04:04.937Z,22.00
2018-10-12T03:06:33.101Z,22.00
2018-10-12T03:09:01.341Z,22.00
2018-10-12T03:11:29.545Z,22.00
2018-10-12T03:13:57.753Z,22.00
2018-10-12T03:16:25.877Z,21.90
2018-10-12T03:18:54.109Z,21.90
2018-10-12T03:21:22.278Z,21.90
2018-10-12T03:23:50.577Z,21.90
2018-10-12T03:26:18.755Z,21.80
2018-10-12T03:28:47.086Z,21.80
2018-10-12T03:31:15.256Z,21.80
2018-10-12T03:33:43.519Z,21.80
2018-10-12T03:36:11.685Z,21.80
2018-10-12T03:38:40.001Z,21.80
2018-10-12T03:41:08.168Z,21.80
2018-10-12T03:43:36.439Z,21.80
2018-10-12T03:46:04.593Z,21.70
2018-10-12T03:48:32.784Z,21.70
2018-10-12T03:51:00.973Z,21.70
2018-10-12T03:53:29.134Z,21.70
2018-10-12T03:55:57.345Z,21.70
2018-10-12T03:58:25.562Z,21.70
2018-10-12T04:00:53.753Z,21.70
2018-10-12T04:03:21.900Z,21.70
2018-10-12T04:05:50.142Z,21.60
2018-10-12T04:08:18.355Z,21.60
2018-10-12T04:10:46.694Z,21.60
2018-10-12T04:13:14.964Z,21.60
2018-10-12T04:15:43.412Z,21.60
2018-10-12T04:18:11.643Z,21.60
2018-10-12T04:20:39.817Z,21.60
2018-10-12T04:23:08.157Z,21.50
2018-10-12T04:25:36.441Z,21.50
2018-10-12T04:28:04.595Z,21.40
2018-10-12T04:30:32.959Z,21.50
2018-10-12T04:33:01.237Z,21.50
2018-10-12T04:35:29.590Z,21.50
2018-10-12T04:37:57.757Z,21.50
2018-10-12T04:41:08.073Z,21.40
2018-10-12T04:43:36.454Z,21.40
2018-10-12T04:46:07.269Z,21.40
2018-10-12T04:48:36.759Z,21.40
2018-10-12T04:51:06.863Z,21.40
2018-10-12T04:53:35.175Z,21.30
2018-10-12T04:56:03.456Z,21.40
2018-10-12T04:58:31.746Z,21.30
2018-10-12T05:00:59.969Z,21.30
2018-10-12T05:03:28.080Z,21.30
2018-10-12T05:05:56.255Z,21.30
2018-10-12T05:08:24.410Z,21.30
2018-10-12T05:10:52.577Z,21.20
2018-10-12T05:13:20.759Z,21.20
2018-10-12T05:15:48.988Z,21.20
2018-10-12T05:18:17.148Z,21.20
2018-10-12T05:20:45.321Z,21.10
2018-10-12T05:23:13.510Z,21.20
2018-10-12T05:25:41.757Z,21.20
2018-10-12T05:28:09.913Z,21.20
2018-10-12T05:30:38.059Z,21.20
2018-10-12T05:33:06.545Z,21.10
2018-10-12T05:35:34.693Z,21.20
2018-10-12T05:38:02.912Z,21.20
2018-10-12T05:40:31.047Z,21.20
2018-10-12T05:42:59.285Z,21.10
2018-10-12T05:45:27.380Z,21.00
2018-10-12T05:48:05.696Z,21.10
2018-10-12T05:50:33.820Z,21.10
2018-10-12T05:53:02.184Z,21.10
2018-10-12T05:55:30.346Z,21.10
2018-10-12T05:57:58.521Z,21.10
2018-10-12T06:00:26.672Z,21.10
2018-10-12T06:02:54.849Z,21.10
2018-10-12T06:05:22.964Z,21.20
2018-10-12T06:07:51.111Z,21.10
2018-10-12T06:10:19.285Z,21.10
2018-10-12T06:12:47.491Z,21.20
2018-10-12T06:15:15.617Z,21.10
2018-10-12T06:17:43.834Z,21.10
2018-10-12T06:20:11.993Z,21.10
2018-10-12T06:22:40.145Z,21.10
2018-10-12T06:25:08.313Z,21.20
2018-10-12T06:27:36.532Z,21.20
2018-10-12T06:30:05.901Z,21.20
2018-10-12T06:32:34.035Z,21.20
2018-10-12T06:35:02.201Z,21.20
2018-10-12T06:37:30.374Z,21.30
2018-10-12T06:39:58.544Z,21.30
2018-10-12T06:42:26.712Z,21.20
2018-10-12T06:44:54.948Z,21.30
2018-10-12T06:47:23.099Z,21.40
2018-10-12T06:49:51.233Z,21.40
2018-10-12T06:52:19.434Z,21.40
2018-10-12T06:54:47.597Z,21.30
2018-10-12T06:57:15.746Z,21.40
2018-10-12T06:59:44.102Z,21.40
2018-10-12T07:02:14.718Z,21.40
2018-10-12T07:04:43.317Z,21.40
2018-10-12T07:07:11.429Z,21.40
2018-10-12T07:09:39.570Z,21.50
2018-10-12T07:12:07.706Z,21.50
2018-10-12T07:14:36.140Z,21.50
2018-10-12T07:17:04.481Z,21.50
2018-10-12T07:19:32.714Z,21.50
2018-10-12T07:22:00.874Z,21.60
2018-10-12T07:24:29.021Z,21.60
2018-10-12T07:26:57.172Z,21.60
2018-10-12T07:29:25.472Z,21.70
2018-10-12T07:31:53.721Z,21.60
2018-10-12T07:34:22.056Z,21.70
2018-10-12T07:36:50.211Z,21.70
2018-10-12T07:39:18.638Z,21.80
2018-10-12T07:41:46.740Z,21.90
2018-10-12T07:44:15.004Z,22.00
2018-10-12T07:46:43.187Z,22.00
2018-10-12T07:49:11.300Z,21.90
2018-10-12T07:51:39.480Z,21.80
2018-10-12T07:54:07.658Z,21.80
2018-10-12T07:56:35.875Z,21.90
2018-10-12T07:59:04.070Z,22.00
2018-10-12T08:01:32.225Z,22.20
2018-10-12T08:04:00.371Z,22.40
2018-10-12T08:06:28.538Z,22.60
2018-10-12T08:08:56.678Z,22.80
2018-10-12T08:11:24.818Z,23.00
2018-10-12T08:13:53.079Z,23.10
2018-10-12T08:16:21.129Z,23.50
2018-10-12T08:18:49.294Z,23.60
2018-10-12T08:21:17.430Z,23.80
2018-10-12T08:23:45.613Z,24.00
2018-10-12T08:26:13.762Z,24.30
2018-10-12T08:28:41.948Z,24.30
2018-10-12T08:31:10.090Z,24.60
2018-10-12T08:33:38.373Z,24.80
2018-10-12T08:36:06.641Z,25.00
2018-10-12T08:38:34.784Z,25.20
2018-10-12T08:41:02.984Z,25.40
2018-10-12T08:43:31.160Z,25.60
2018-10-12T08:45:59.303Z,25.80
2018-10-12T08:48:27.456Z,26.00
2018-10-12T08:50:55.596Z,26.20
2018-10-12T08:53:23.762Z,26.50
2018-10-12T08:55:51.929Z,26.70
2018-10-12T08:58:20.076Z,26.90
2018-10-12T09:00:48.227Z,27.10
2018-10-12T09:03:16.385Z,27.40
2018-10-12T09:05:44.563Z,27.50
2018-10-12T09:08:12.701Z,27.70
2018-10-12T09:10:40.930Z,28.00
2018-10-12T09:13:09.122Z,28.20
2018-10-12T09:15:37.281Z,28.50
2018-10-12T09:18:05.450Z,28.60
2018-10-12T09:20:33.702Z,28.80
2018-10-12T09:23:01.711Z,29.00
2018-10-12T09:25:29.858Z,29.20
2018-10-12T09:27:58.028Z,29.40
2018-10-12T09:30:26.254Z,29.50
2018-10-12T09:32:54.374Z,29.60
2018-10-12T09:35:22.569Z,29.70
2018-10-12T09:37:50.707Z,29.90
2018-10-12T09:40:18.891Z,30.10
2018-10-12T09:42:47.045Z,30.20
2018-10-12T09:45:15.174Z,30.40
2018-10-12T09:47:43.332Z,30.50
2018-10-12T09:50:11.481Z,30.60
2018-10-12T09:52:39.677Z,30.70
2018-10-12T09:55:07.909Z,30.80
2018-10-12T09:57:37.097Z,30.90
2018-10-12T10:00:08.869Z,31.00
2018-10-12T10:02:42.310Z,31.20
2018-10-12T10:05:11.077Z,31.40
2018-10-12T10:07:40.082Z,31.60
2018-10-12T10:10:08.150Z,31.80
2018-10-12T10:12:36.342Z,32.00
2018-10-12T10:15:04.564Z,32.20
2018-10-12T10:17:32.939Z,32.50
2018-10-12T10:20:01.067Z,32.70
2018-10-12T10:22:29.201Z,32.90
2018-10-12T10:24:57.353Z,33.10
2018-10-12T10:27:25.526Z,33.20
2018-10-12T10:29:53.721Z,33.40
2018-10-12T10:32:21.905Z,33.50
2018-10-12T10:34:50.050Z,33.60
2018-10-12T10:37:18.201Z,33.70
2018-10-12T10:39:46.321Z,33.60
2018-10-12T10:42:14.435Z,33.90
2018-10-12T10:44:42.591Z,34.10
2018-10-12T10:47:10.712Z,34.30
2018-10-12T10:49:38.845Z,34.50
2018-10-12T10:52:07.093Z,34.60
2018-10-12T10:54:35.237Z,34.70
2018-10-12T10:57:04.177Z,34.80
2018-10-12T10:59:33.724Z,34.90
2018-10-12T11:02:01.869Z,34.90
2018-10-12T11:04:30.755Z,35.20
2018-10-12T11:06:59.046Z,35.20
2018-10-12T11:09:27.186Z,35.90
2018-10-12T11:11:55.373Z,37.80
2018-10-12T11:14:23.656Z,39.30
2018-10-12T11:16:51.853Z,40.20
2018-10-12T11:19:20.211Z,41.20
2018-10-12T11:21:48.461Z,42.20
2018-10-12T11:24:16.614Z,43.00
2018-10-12T11:26:44.843Z,43.80
2018-10-12T11:29:12.997Z,44.80
2018-10-12T11:31:41.186Z,45.80
2018-10-12T11:34:09.314Z,46.60
2018-10-12T11:36:37.441Z,47.40
2018-10-12T11:39:09.846Z,48.00
2018-10-12T11:41:37.967Z,48.70
2018-10-12T11:44:06.121Z,49.50
2018-10-12T11:46:34.237Z,49.90
2018-10-12T11:49:02.404Z,50.30
2018-10-12T11:51:30.741Z,50.50
2018-10-12T11:53:58.897Z,51.80
2018-10-12T11:56:27.092Z,53.00
2018-10-12T11:58:55.257Z,53.70
2018-10-12T12:01:23.397Z,54.00
2018-10-12T12:03:51.605Z,54.40
2018-10-12T12:06:19.737Z,54.90
2018-10-12T12:08:47.913Z,55.10
2018-10-12T12:11:16.026Z,55.50
2018-10-12T12:13:44.227Z,55.40
2018-10-12T12:16:12.313Z,55.20
2018-10-12T12:18:40.473Z,55.50
2018-10-12T12:21:08.729Z,55.70
2018-10-12T12:23:37.001Z,56.00
2018-10-12T12:26:05.195Z,56.40
2018-10-12T12:28:33.305Z,56.50
2018-10-12T12:31:01.443Z,56.80
2018-10-12T12:33:29.565Z,57.20
2018-10-12T12:35:57.977Z,57.10
2018-10-12T12:38:25.925Z,57.50
2018-10-12T12:40:54.053Z,57.40
2018-10-12T12:43:22.195Z,57.70
2018-10-12T12:45:50.358Z,57.60
2018-10-12T12:48:18.721Z,57.70
2018-10-12T12:50:46.721Z,57.70
2018-10-12T12:53:14.856Z,57.30
2018-10-12T12:55:43.041Z,57.30
2018-10-12T12:58:11.209Z,57.00
2018-10-12T13:00:39.385Z,56.70
2018-10-12T13:03:07.486Z,56.60
2018-10-12T13:05:35.616Z,57.10
2018-10-12T13:08:03.808Z,56.00
2018-10-12T13:10:31.919Z,52.60
2018-10-12T13:13:00.045Z,49.90
2018-10-12T13:15:28.197Z,51.60
2018-10-12T13:17:56.360Z,52.10
2018-10-12T13:20:24.557Z,52.70
2018-10-12T13:22:52.698Z,52.50
2018-10-12T13:25:20.992Z,50.70
2018-10-12T13:27:49.141Z,48.80
2018-10-12T13:30:17.273Z,47.20
2018-10-12T13:32:45.407Z,48.00
2018-10-12T13:35:13.613Z,49.10
2018-10-12T13:37:41.776Z,50.20
2018-10-12T13:40:09.985Z,50.00
2018-10-12T13:42:38.139Z,50.20
2018-10-12T13:45:06.493Z,50.30
2018-10-12T13:47:34.654Z,50.40
2018-10-12T13:50:02.850Z,48.70
2018-10-12T13:52:31.009Z,46.50
2018-10-12T13:54:59.162Z,44.60
2018-10-12T13:57:27.289Z,43.00
2018-10-12T13:59:55.486Z,41.90
2018-10-12T14:02:23.630Z,41.30
2018-10-12T14:04:51.798Z,41.10
2018-10-12T14:07:19.921Z,41.00
2018-10-12T14:09:48.054Z,41.30
2018-10-12T14:12:16.325Z,41.00
2018-10-12T14:14:44.446Z,40.70
2018-10-12T14:17:12.593Z,40.70
2018-10-12T14:19:40.765Z,40.30
2018-10-12T14:22:08.896Z,39.90
2018-10-12T14:24:37.065Z,39.50
2018-10-12T14:27:05.249Z,39.60
2018-10-12T14:29:33.401Z,39.60
2018-10-12T14:32:01.574Z,39.90
2018-10-12T14:34:29.762Z,41.60
2018-10-12T14:36:57.885Z,42.20
2018-10-12T14:39:26.076Z,42.70
2018-10-12T14:42:00.674Z,42.60
2018-10-12T14:44:28.936Z,41.50
2018-10-12T14:46:56.981Z,40.40
2018-10-12T14:49:25.112Z,39.20
2018-10-12T14:51:53.306Z,38.30
2018-10-12T14:54:21.512Z,37.80
2018-10-12T14:56:49.670Z,37.20
2018-10-12T14:59:17.797Z,36.70
2018-10-12T15:01:45.916Z,36.40
2018-10-12T15:04:14.057Z,36.00
2018-10-12T15:06:42.216Z,35.60
2018-10-12T15:09:11.856Z,35.30
2018-10-12T15:11:40.071Z,35.10
2018-10-12T15:14:08.170Z,34.90
2018-10-12T15:16:36.321Z,34.80
2018-10-12T15:19:04.495Z,34.60
2018-10-12T15:21:32.725Z,34.40
2018-10-12T15:24:00.862Z,34.10
2018-10-12T15:26:29.021Z,33.90
2018-10-12T15:28:57.342Z,33.60
2018-10-12T15:31:25.473Z,33.40
2018-10-12T15:33:53.577Z,33.20
2018-10-12T15:36:21.766Z,33.00
2018-10-12T15:38:49.897Z,32.90
2018-10-12T15:41:18.066Z,32.90
2018-10-12T15:43:46.262Z,32.80
2018-10-12T15:46:14.441Z,32.70
2018-10-12T15:48:42.597Z,32.60
2018-10-12T15:51:10.890Z,32.40
2018-10-12T15:53:39.031Z,32.30
2018-10-12T15:56:07.203Z,32.40
2018-10-12T15:58:35.301Z,32.40
2018-10-12T16:01:03.422Z,32.20
2018-10-12T16:03:31.566Z,32.00
2018-10-12T16:05:59.692Z,31.80
2018-10-12T16:08:27.819Z,31.70
2018-10-12T16:10:55.930Z,31.50
2018-10-12T16:13:24.057Z,31.40
2018-10-12T16:15:52.213Z,31.20
2018-10-12T16:18:20.354Z,31.10
2018-10-12T16:20:48.532Z,31.00
2018-10-12T16:23:16.678Z,30.90
2018-10-12T16:25:57.198Z,30.80
2018-10-12T16:28:25.340Z,30.70
2018-10-12T16:30:54.201Z,30.60
2018-10-12T16:33:22.683Z,30.50
2018-10-12T16:35:52.044Z,30.30
2018-10-12T16:38:20.094Z,30.30
2018-10-12T16:40:48.214Z,30.20
2018-10-12T16:43:16.828Z,30.10
2018-10-12T16:45:45.986Z,30.00
2018-10-12T16:48:14.382Z,29.90
2018-10-12T16:50:42.537Z,29.80
2018-10-12T16:53:11.129Z,29.70
2018-10-12T16:55:39.353Z,29.60
2018-10-12T16:58:07.668Z,29.60
2018-10-12T17:00:35.721Z,29.50
2018-10-12T17:03:03.895Z,29.40
2018-10-12T17:05:32.119Z,29.30
2018-10-12T17:08:01.196Z,29.30
2018-10-12T17:10:29.765Z,29.20
2018-10-12T17:12:57.903Z,29.20
2018-10-12T17:15:26.460Z,29.10
2018-10-12T17:17:55.468Z,29.00
2018-10-12T17:20:23.622Z,29.00
2018-10-12T17:22:51.831Z,28.90
2018-10-12T17:25:20.049Z,28.90
2018-10-12T17:27:48.521Z,28.80
2018-10-12T17:30:16.674Z,28.80
2018-10-12T17:32:44.917Z,28.70
2018-10-12T17:35:13.226Z,28.70
2018-10-12T17:37:41.409Z,28.60
2018-10-12T17:40:10.092Z,28.50
2018-10-12T17:42:38.312Z,28.50
2018-10-12T17:45:07.182Z,28.50
2018-10-12T17:47:35.377Z,28.40
2018-10-12T17:50:03.538Z,28.40
2018-10-12T17:52:31.875Z,28.30
2018-10-12T17:55:00.009Z,28.30
2018-10-12T17:57:28.455Z,28.20
2018-10-12T17:59:56.904Z,28.20
2018-10-12T18:02:25.061Z,28.10
2018-10-12T18:04:53.193Z,28.10
2018-10-12T18:07:21.352Z,28.00
2018-10-12T18:09:49.501Z,28.00
2018-10-12T18:12:17.648Z,27.90
2018-10-12T18:14:45.811Z,27.90
2018-10-12T18:17:13.995Z,27.90
2018-10-12T18:19:42.193Z,27.80
2018-10-12T18:22:10.318Z,27.80
2018-10-12T18:24:38.467Z,27.70
2018-10-12T18:27:06.770Z,27.70
2018-10-12T18:29:34.946Z,27.70
2018-10-12T18:32:03.160Z,27.60
2018-10-12T18:34:31.337Z,27.60
2018-10-12T18:36:59.555Z,27.50
2018-10-12T18:39:27.660Z,27.50
2018-10-12T18:41:55.824Z,27.50
2018-10-12T18:44:24.168Z,27.40
2018-10-12T18:46:52.338Z,27.40
2018-10-12T18:49:20.528Z,27.30
2018-10-12T18:51:48.678Z,27.30
2018-10-12T18:54:16.936Z,27.30
2018-10-12T18:56:45.087Z,27.30
2018-10-12T18:59:13.230Z,27.20
2018-10-12T19:01:41.381Z,27.10
2018-10-12T19:04:09.553Z,27.10
2018-10-12T19:06:37.980Z,27.10
2018-10-12T19:09:08.136Z,27.00
2018-10-12T19:11:36.260Z,26.90
2018-10-12T19:14:04.500Z,27.00
2018-10-12T19:16:32.733Z,26.90
2018-10-12T19:19:00.901Z,26.90
2018-10-12T19:21:29.164Z,26.90
2018-10-12T19:23:57.363Z,26.80
2018-10-12T19:26:25.572Z,26.80
2018-10-12T19:28:53.760Z,26.80
2018-10-12T19:31:21.975Z,26.70
2018-10-12T19:33:50.097Z,26.60
2018-10-12T19:36:18.244Z,26.60
2018-10-12T19:38:46.418Z,26.60
2018-10-12T19:41:14.546Z,26.60
2018-10-12T19:43:42.681Z,26.50
2018-10-12T19:46:10.830Z,26.50
2018-10-12T19:48:38.958Z,26.50
2018-10-12T19:51:07.081Z,26.50
2018-10-12T19:53:35.225Z,26.40
2018-10-12T19:56:03.361Z,26.40
2018-10-12T19:58:31.532Z,26.40
2018-10-12T20:00:59.668Z,26.40
2018-10-12T20:03:27.812Z,26.40
2018-10-12T20:05:55.983Z,26.30
2018-10-12T20:08:24.134Z,26.30
2018-10-12T20:10:52.276Z,26.30
2018-10-12T20:13:20.491Z,26.20
2018-10-12T20:15:48.696Z,26.30
2018-10-12T20:18:16.889Z,26.20
2018-10-12T20:23:19.651Z,26.20
2018-10-12T20:25:47.824Z,26.10
2018-10-12T20:28:16.036Z,26.10
2018-10-12T20:30:44.197Z,26.10
2018-10-12T20:33:12.350Z,26.00
2018-10-12T20:35:40.522Z,26.00
2018-10-12T20:38:08.840Z,26.00
2018-10-12T20:40:37.053Z,26.00
2018-10-12T20:43:05.333Z,26.00
2018-10-12T20:45:33.517Z,26.00
2018-10-12T20:48:01.684Z,26.00
2018-10-12T20:50:29.882Z,25.90
2018-10-12T20:52:57.990Z,26.00
2018-10-12T20:55:26.147Z,26.00
2018-10-12T20:57:54.293Z,25.90
2018-10-12T21:00:22.963Z,25.90
2018-10-12T21:02:51.158Z,25.80
2018-10-12T21:05:19.367Z,25.80
2018-10-12T21:07:47.566Z,25.80
2018-10-12T21:10:15.756Z,25.80
2018-10-12T21:12:43.907Z,25.80
2018-10-12T21:15:12.185Z,25.70
2018-10-12T21:17:40.317Z,25.70
2018-10-12T21:20:08.470Z,25.70
2018-10-12T21:22:36.649Z,25.70
2018-10-12T21:25:04.866Z,25.70
2018-10-12T21:27:33.077Z,25.60
2018-10-12T21:30:01.257Z,25.60
2018-10-12T21:32:29.407Z,25.60
2018-10-12T21:34:57.557Z,25.60
2018-10-12T21:37:25.674Z,25.60
2018-10-12T21:39:53.823Z,25.60
2018-10-12T21:42:21.936Z,25.60
2018-10-12T21:44:50.114Z,25.60
2018-10-12T21:47:18.259Z,25.60
2018-10-12T21:49:46.393Z,25.60
2018-10-12T21:52:14.519Z,25.50
2018-10-12T21:54:42.681Z,25.40
2018-10-12T21:57:10.833Z,25.40
2018-10-12T21:59:38.965Z,25.40
2018-10-12T22:02:07.108Z,25.30
2018-10-12T22:04:35.266Z,25.30
2018-10-12T22:07:03.405Z,25.30
2018-10-12T22:09:31.525Z,25.30
2018-10-12T22:11:59.748Z,25.30
2018-10-12T22:14:27.918Z,25.30
2018-10-12T22:16:56.087Z,25.30
2018-10-12T22:19:24.249Z,25.20
2018-10-12T22:21:52.378Z,25.20
2018-10-12T22:24:20.569Z,25.20
2018-10-12T22:26:48.685Z,25.20
2018-10-12T22:29:16.831Z,25.20
2018-10-12T22:31:44.954Z,25.20
2018-10-12T22:34:13.077Z,25.20
2018-10-12T22:36:41.190Z,25.10
2018-10-12T22:39:10.290Z,25.00
2018-10-12T22:41:38.481Z,25.00
2018-10-12T22:44:06.778Z,25.00
2018-10-12T22:46:34.916Z,25.00
2018-10-12T22:49:03.077Z,25.00
2018-10-12T22:51:31.220Z,25.00
2018-10-12T22:53:59.450Z,25.00
2018-10-12T22:56:27.598Z,25.00
2018-10-12T22:58:55.721Z,25.00
2018-10-12T23:01:23.841Z,25.00
2018-10-12T23:03:51.949Z,25.00
2018-10-12T23:06:20.101Z,24.90
2018-10-12T23:08:48.241Z,24.90
2018-10-12T23:11:16.378Z,24.80
2018-10-12T23:13:44.564Z,24.80
2018-10-12T23:16:12.749Z,24.80
2018-10-12T23:18:40.998Z,24.80
2018-10-12T23:21:09.156Z,24.80
2018-10-12T23:23:37.537Z,24.80
2018-10-12T23:26:05.763Z,24.70
2018-10-12T23:28:33.921Z,24.70
2018-10-12T23:31:02.046Z,24.60
2018-10-12T23:33:41.568Z,24.70
2018-10-12T23:36:09.736Z,24.60
2018-10-12T23:38:37.985Z,24.60
2018-10-12T23:41:06.180Z,24.50
2018-10-12T23:43:34.556Z,24.60
2018-10-12T23:46:02.724Z,24.60
2018-10-12T23:48:30.950Z,24.60
2018-10-12T23:50:59.130Z,24.50
2018-10-12T23:53:27.479Z,24.50
2018-10-12T23:55:55.662Z,24.50
2018-10-12T23:58:23.756Z,24.40
